sensor_id;sensor_type;location;lat;lon;timestamp;P1;durP1;ratioP1;P2;durP2;ratioP2
36855;SDS011;22788;51.434;6.786;2023-05-01T00:00:12;4.75;;;2.83;;
36855;SDS011;22788;51.434;6.786;2023-05-01T00:02:39;3.88;;;2.13;;
36855;SDS011;22788;51.434;6.786;2023-05-01T00:05:05;5.10;;;2.08;;
36855;SDS011;22788;51.434;6.786;2023-05-01T00:07:31;3.88;;;2.28;;
36855;SDS011;22788;51.434;6.786;2023-05-01T00:09:57;2.50;;;2.30;;
36855;SDS011;22788;51.434;6.786;2023-05-01T00:12:23;2.60;;;2.00;;
36855;SDS011;22788;51.434;6.786;2023-05-01T00:14:49;3.53;;;2.20;;
36855;SDS011;22788;51.434;6.786;2023-05-01T00:17:15;3.47;;;2.00;;
36855;SDS011;22788;51.434;6.786;2023-05-01T00:19:42;4.75;;;2.20;;
36855;SDS011;22788;51.434;6.786;2023-05-01T00:22:07;4.53;;;2.47;;
36855;SDS011;22788;51.434;6.786;2023-05-01T00:24:33;2.78;;;2.08;;
36855;SDS011;22788;51.434;6.786;2023-05-01T00:26:58;2.55;;;2.10;;
36855;SDS011;22788;51.434;6.786;2023-05-01T00:29:24;3.03;;;2.42;;
36855;SDS011;22788;51.434;6.786;2023-05-01T00:31:50;2.40;;;2.13;;
36855;SDS011;22788;51.434;6.786;2023-05-01T00:34:15;3.17;;;2.13;;
36855;SDS011;22788;51.434;6.786;2023-05-01T00:36:42;2.95;;;2.13;;
36855;SDS011;22788;51.434;6.786;2023-05-01T00:39:08;3.78;;;2.20;;
36855;SDS011;22788;51.434;6.786;2023-05-01T00:41:34;3.60;;;2.30;;
36855;SDS011;22788;51.434;6.786;2023-05-01T00:43:59;3.28;;;2.20;;
36855;SDS011;22788;51.434;6.786;2023-05-01T00:46:25;2.88;;;2.05;;
36855;SDS011;22788;51.434;6.786;2023-05-01T00:48:51;4.32;;;2.40;;
36855;SDS011;22788;51.434;6.786;2023-05-01T00:51:17;4.00;;;2.30;;
36855;SDS011;22788;51.434;6.786;2023-05-01T00:53:45;4.53;;;2.28;;
36855;SDS011;22788;51.434;6.786;2023-05-01T00:56:11;4.03;;;2.20;;
36855;SDS011;22788;51.434;6.786;2023-05-01T00:58:37;3.72;;;2.40;;
36855;SDS011;22788;51.434;6.786;2023-05-01T01:01:02;3.70;;;2.33;;
36855;SDS011;22788;51.434;6.786;2023-05-01T01:03:28;2.33;;;2.13;;
36855;SDS011;22788;51.434;6.786;2023-05-01T01:05:55;3.97;;;2.35;;
36855;SDS011;22788;51.434;6.786;2023-05-01T01:08:29;2.40;;;1.90;;
36855;SDS011;22788;51.434;6.786;2023-05-01T01:11:06;4.35;;;2.40;;
36855;SDS011;22788;51.434;6.786;2023-05-01T01:13:38;3.10;;;2.22;;
36855;SDS011;22788;51.434;6.786;2023-05-01T01:16:11;4.50;;;2.50;;
36855;SDS011;22788;51.434;6.786;2023-05-01T01:18:46;4.45;;;2.78;;
36855;SDS011;22788;51.434;6.786;2023-05-01T01:21:17;2.78;;;2.00;;
36855;SDS011;22788;51.434;6.786;2023-05-01T01:24:03;5.22;;;2.65;;
36855;SDS011;22788;51.434;6.786;2023-05-01T01:27:14;3.33;;;2.42;;
36855;SDS011;22788;51.434;6.786;2023-05-01T01:29:55;4.18;;;2.33;;
36855;SDS011;22788;51.434;6.786;2023-05-01T01:35:34;3.20;;;1.92;;
36855;SDS011;22788;51.434;6.786;2023-05-01T01:38:03;2.38;;;2.13;;
36855;SDS011;22788;51.434;6.786;2023-05-01T01:40:32;2.60;;;2.17;;
36855;SDS011;22788;51.434;6.786;2023-05-01T01:43:04;2.60;;;2.38;;
36855;SDS011;22788;51.434;6.786;2023-05-01T01:45:33;6.70;;;2.60;;
36855;SDS011;22788;51.434;6.786;2023-05-01T01:48:01;3.22;;;2.38;;
36855;SDS011;22788;51.434;6.786;2023-05-01T01:50:28;2.92;;;2.63;;
36855;SDS011;22788;51.434;6.786;2023-05-01T01:52:57;4.32;;;2.63;;
36855;SDS011;22788;51.434;6.786;2023-05-01T01:55:26;3.70;;;2.40;;
36855;SDS011;22788;51.434;6.786;2023-05-01T01:57:55;3.70;;;2.30;;
36855;SDS011;22788;51.434;6.786;2023-05-01T02:00:23;3.92;;;2.60;;
36855;SDS011;22788;51.434;6.786;2023-05-01T02:02:49;3.80;;;2.25;;
36855;SDS011;22788;51.434;6.786;2023-05-01T02:05:18;2.85;;;2.40;;
36855;SDS011;22788;51.434;6.786;2023-05-01T02:07:45;3.83;;;2.80;;
36855;SDS011;22788;51.434;6.786;2023-05-01T02:10:15;3.78;;;2.58;;
36855;SDS011;22788;51.434;6.786;2023-05-01T02:12:43;2.92;;;2.40;;
36855;SDS011;22788;51.434;6.786;2023-05-01T02:15:12;2.83;;;2.30;;
36855;SDS011;22788;51.434;6.786;2023-05-01T02:17:39;3.25;;;2.42;;
36855;SDS011;22788;51.434;6.786;2023-05-01T02:20:06;2.75;;;2.15;;
36855;SDS011;22788;51.434;6.786;2023-05-01T02:22:34;2.95;;;2.28;;
36855;SDS011;22788;51.434;6.786;2023-05-01T02:25:00;3.30;;;2.42;;
36855;SDS011;22788;51.434;6.786;2023-05-01T02:27:29;3.20;;;2.40;;
36855;SDS011;22788;51.434;6.786;2023-05-01T02:29:58;2.40;;;2.20;;
36855;SDS011;22788;51.434;6.786;2023-05-01T02:32:24;3.30;;;2.35;;
36855;SDS011;22788;51.434;6.786;2023-05-01T02:34:50;4.93;;;2.92;;
36855;SDS011;22788;51.434;6.786;2023-05-01T02:37:15;3.97;;;2.30;;
36855;SDS011;22788;51.434;6.786;2023-05-01T02:39:41;2.85;;;2.45;;
36855;SDS011;22788;51.434;6.786;2023-05-01T02:42:07;4.88;;;2.53;;
36855;SDS011;22788;51.434;6.786;2023-05-01T02:44:37;4.03;;;2.28;;
36855;SDS011;22788;51.434;6.786;2023-05-01T02:47:05;3.58;;;2.22;;
36855;SDS011;22788;51.434;6.786;2023-05-01T02:49:33;3.17;;;2.45;;
36855;SDS011;22788;51.434;6.786;2023-05-01T02:52:00;3.85;;;2.33;;
36855;SDS011;22788;51.434;6.786;2023-05-01T02:54:26;4.68;;;2.70;;
36855;SDS011;22788;51.434;6.786;2023-05-01T02:56:52;3.45;;;2.50;;
36855;SDS011;22788;51.434;6.786;2023-05-01T02:59:18;4.13;;;2.60;;
36855;SDS011;22788;51.434;6.786;2023-05-01T03:01:45;3.00;;;2.30;;
36855;SDS011;22788;51.434;6.786;2023-05-01T03:04:11;3.53;;;2.67;;
36855;SDS011;22788;51.434;6.786;2023-05-01T03:06:36;4.18;;;3.00;;
36855;SDS011;22788;51.434;6.786;2023-05-01T03:09:02;3.33;;;2.55;;
36855;SDS011;22788;51.434;6.786;2023-05-01T03:11:28;3.05;;;2.47;;
36855;SDS011;22788;51.434;6.786;2023-05-01T03:13:53;4.28;;;2.60;;
36855;SDS011;22788;51.434;6.786;2023-05-01T03:16:19;4.82;;;2.35;;
36855;SDS011;22788;51.434;6.786;2023-05-01T03:18:46;3.13;;;2.42;;
36855;SDS011;22788;51.434;6.786;2023-05-01T03:21:11;3.38;;;2.78;;
36855;SDS011;22788;51.434;6.786;2023-05-01T03:23:37;4.40;;;2.88;;
36855;SDS011;22788;51.434;6.786;2023-05-01T03:26:02;2.92;;;2.30;;
36855;SDS011;22788;51.434;6.786;2023-05-01T03:28:28;4.20;;;2.78;;
36855;SDS011;22788;51.434;6.786;2023-05-01T03:30:54;4.88;;;2.55;;
36855;SDS011;22788;51.434;6.786;2023-05-01T03:33:19;3.92;;;2.63;;
36855;SDS011;22788;51.434;6.786;2023-05-01T03:35:46;4.47;;;2.80;;
36855;SDS011;22788;51.434;6.786;2023-05-01T03:38:12;4.68;;;2.60;;
36855;SDS011;22788;51.434;6.786;2023-05-01T03:40:38;3.85;;;2.72;;
36855;SDS011;22788;51.434;6.786;2023-05-01T03:43:03;4.20;;;2.88;;
36855;SDS011;22788;51.434;6.786;2023-05-01T03:45:29;4.28;;;2.80;;
36855;SDS011;22788;51.434;6.786;2023-05-01T03:47:54;3.22;;;2.80;;
36855;SDS011;22788;51.434;6.786;2023-05-01T03:50:20;3.95;;;2.20;;
36855;SDS011;22788;51.434;6.786;2023-05-01T03:52:47;7.05;;;3.08;;
36855;SDS011;22788;51.434;6.786;2023-05-01T03:55:12;3.75;;;2.80;;
36855;SDS011;22788;51.434;6.786;2023-05-01T03:57:38;5.63;;;2.95;;
36855;SDS011;22788;51.434;6.786;2023-05-01T04:00:04;3.35;;;2.85;;
36855;SDS011;22788;51.434;6.786;2023-05-01T04:02:30;5.65;;;2.85;;
36855;SDS011;22788;51.434;6.786;2023-05-01T04:04:56;3.42;;;3.00;;
36855;SDS011;22788;51.434;6.786;2023-05-01T04:07:21;3.28;;;2.72;;
36855;SDS011;22788;51.434;6.786;2023-05-01T04:09:49;3.20;;;2.60;;
36855;SDS011;22788;51.434;6.786;2023-05-01T04:12:15;4.95;;;2.60;;
36855;SDS011;22788;51.434;6.786;2023-05-01T04:14:40;4.57;;;2.70;;
36855;SDS011;22788;51.434;6.786;2023-05-01T04:17:06;4.05;;;2.65;;
36855;SDS011;22788;51.434;6.786;2023-05-01T04:19:31;5.18;;;2.83;;
36855;SDS011;22788;51.434;6.786;2023-05-01T04:21:57;2.97;;;2.63;;
36855;SDS011;22788;51.434;6.786;2023-05-01T04:24:23;3.60;;;2.67;;
36855;SDS011;22788;51.434;6.786;2023-05-01T04:26:49;4.78;;;2.97;;
36855;SDS011;22788;51.434;6.786;2023-05-01T04:29:15;4.90;;;3.17;;
36855;SDS011;22788;51.434;6.786;2023-05-01T04:31:41;3.22;;;2.85;;
36855;SDS011;22788;51.434;6.786;2023-05-01T04:34:06;3.47;;;2.95;;
36855;SDS011;22788;51.434;6.786;2023-05-01T04:36:32;4.35;;;2.70;;
36855;SDS011;22788;51.434;6.786;2023-05-01T04:38:57;3.38;;;2.75;;
36855;SDS011;22788;51.434;6.786;2023-05-01T04:41:23;3.00;;;2.65;;
36855;SDS011;22788;51.434;6.786;2023-05-01T04:43:50;5.43;;;3.30;;
36855;SDS011;22788;51.434;6.786;2023-05-01T04:46:15;3.97;;;2.63;;
36855;SDS011;22788;51.434;6.786;2023-05-01T04:48:41;4.20;;;3.00;;
36855;SDS011;22788;51.434;6.786;2023-05-01T04:51:07;4.35;;;3.13;;
36855;SDS011;22788;51.434;6.786;2023-05-01T04:53:32;4.32;;;2.90;;
36855;SDS011;22788;51.434;6.786;2023-05-01T04:55:58;3.55;;;2.75;;
36855;SDS011;22788;51.434;6.786;2023-05-01T04:58:23;4.57;;;3.10;;
36855;SDS011;22788;51.434;6.786;2023-05-01T05:00:50;4.10;;;2.65;;
36855;SDS011;22788;51.434;6.786;2023-05-01T05:03:16;4.13;;;2.85;;
36855;SDS011;22788;51.434;6.786;2023-05-01T05:05:42;5.32;;;3.08;;
36855;SDS011;22788;51.434;6.786;2023-05-01T05:08:07;3.78;;;3.00;;
36855;SDS011;22788;51.434;6.786;2023-05-01T05:10:33;3.58;;;2.85;;
36855;SDS011;22788;51.434;6.786;2023-05-01T05:12:58;5.70;;;3.17;;
36855;SDS011;22788;51.434;6.786;2023-05-01T05:15:24;4.32;;;3.17;;
36855;SDS011;22788;51.434;6.786;2023-05-01T05:17:51;5.30;;;3.03;;
36855;SDS011;22788;51.434;6.786;2023-05-01T05:20:16;3.35;;;2.78;;
36855;SDS011;22788;51.434;6.786;2023-05-01T05:22:42;4.30;;;3.25;;
36855;SDS011;22788;51.434;6.786;2023-05-01T05:25:08;4.93;;;3.05;;
36855;SDS011;22788;51.434;6.786;2023-05-01T05:27:34;3.83;;;2.77;;
36855;SDS011;22788;51.434;6.786;2023-05-01T05:29:59;3.65;;;2.92;;
36855;SDS011;22788;51.434;6.786;2023-05-01T05:32:25;4.18;;;3.38;;
36855;SDS011;22788;51.434;6.786;2023-05-01T05:34:52;5.47;;;3.05;;
36855;SDS011;22788;51.434;6.786;2023-05-01T05:37:17;4.60;;;3.17;;
36855;SDS011;22788;51.434;6.786;2023-05-01T05:39:43;4.20;;;3.08;;
36855;SDS011;22788;51.434;6.786;2023-05-01T05:42:08;3.65;;;2.40;;
36855;SDS011;22788;51.434;6.786;2023-05-01T05:44:34;5.60;;;3.92;;
36855;SDS011;22788;51.434;6.786;2023-05-01T05:47:00;4.43;;;3.47;;
36855;SDS011;22788;51.434;6.786;2023-05-01T05:49:25;3.38;;;2.80;;
36855;SDS011;22788;51.434;6.786;2023-05-01T05:51:52;3.88;;;3.28;;
36855;SDS011;22788;51.434;6.786;2023-05-01T05:54:18;4.80;;;3.20;;
36855;SDS011;22788;51.434;6.786;2023-05-01T05:56:43;5.05;;;3.03;;
36855;SDS011;22788;51.434;6.786;2023-05-01T05:59:09;4.00;;;3.17;;
36855;SDS011;22788;51.434;6.786;2023-05-01T06:01:34;5.07;;;3.08;;
36855;SDS011;22788;51.434;6.786;2023-05-01T06:04:00;3.90;;;2.92;;
36855;SDS011;22788;51.434;6.786;2023-05-01T06:06:26;3.53;;;3.17;;
36855;SDS011;22788;51.434;6.786;2023-05-01T06:08:53;3.85;;;3.10;;
36855;SDS011;22788;51.434;6.786;2023-05-01T06:11:18;6.03;;;2.85;;
36855;SDS011;22788;51.434;6.786;2023-05-01T06:13:44;3.50;;;2.92;;
36855;SDS011;22788;51.434;6.786;2023-05-01T06:16:10;4.40;;;3.08;;
36855;SDS011;22788;51.434;6.786;2023-05-01T06:18:35;4.50;;;2.45;;
36855;SDS011;22788;51.434;6.786;2023-05-01T06:21:01;3.03;;;2.67;;
36855;SDS011;22788;51.434;6.786;2023-05-01T06:23:27;4.70;;;2.83;;
36855;SDS011;22788;51.434;6.786;2023-05-01T06:25:54;4.25;;;2.80;;
36855;SDS011;22788;51.434;6.786;2023-05-01T06:28:19;2.92;;;2.70;;
36855;SDS011;22788;51.434;6.786;2023-05-01T06:30:45;3.25;;;2.25;;
36855;SDS011;22788;51.434;6.786;2023-05-01T06:33:11;3.25;;;2.65;;
36855;SDS011;22788;51.434;6.786;2023-05-01T06:35:37;3.03;;;2.50;;
36855;SDS011;22788;51.434;6.786;2023-05-01T06:38:03;3.17;;;2.60;;
36855;SDS011;22788;51.434;6.786;2023-05-01T06:40:28;2.88;;;2.40;;
36855;SDS011;22788;51.434;6.786;2023-05-01T06:42:55;4.88;;;2.72;;
36855;SDS011;22788;51.434;6.786;2023-05-01T06:45:21;3.55;;;2.65;;
36855;SDS011;22788;51.434;6.786;2023-05-01T06:47:47;4.22;;;2.50;;
36855;SDS011;22788;51.434;6.786;2023-05-01T06:50:12;3.80;;;3.03;;
36855;SDS011;22788;51.434;6.786;2023-05-01T06:52:38;3.42;;;2.35;;
36855;SDS011;22788;51.434;6.786;2023-05-01T06:55:04;3.13;;;2.70;;
36855;SDS011;22788;51.434;6.786;2023-05-01T06:57:30;3.20;;;2.53;;
36855;SDS011;22788;51.434;6.786;2023-05-01T06:59:57;2.75;;;2.38;;
36855;SDS011;22788;51.434;6.786;2023-05-01T07:02:23;2.97;;;2.57;;
36855;SDS011;22788;51.434;6.786;2023-05-01T07:04:48;3.78;;;2.72;;
36855;SDS011;22788;51.434;6.786;2023-05-01T07:07:14;2.92;;;2.40;;
36855;SDS011;22788;51.434;6.786;2023-05-01T07:09:39;5.18;;;2.50;;
36855;SDS011;22788;51.434;6.786;2023-05-01T07:12:05;3.35;;;2.55;;
36855;SDS011;22788;51.434;6.786;2023-05-01T07:14:31;3.63;;;2.50;;
36855;SDS011;22788;51.434;6.786;2023-05-01T07:16:58;2.97;;;2.13;;
36855;SDS011;22788;51.434;6.786;2023-05-01T07:19:23;7.90;;;2.30;;
36855;SDS011;22788;51.434;6.786;2023-05-01T07:21:49;3.35;;;2.15;;
36855;SDS011;22788;51.434;6.786;2023-05-01T07:24:15;2.92;;;2.13;;
36855;SDS011;22788;51.434;6.786;2023-05-01T07:26:41;3.10;;;2.50;;
36855;SDS011;22788;51.434;6.786;2023-05-01T07:29:07;2.67;;;2.40;;
36855;SDS011;22788;51.434;6.786;2023-05-01T07:31:32;5.75;;;2.55;;
36855;SDS011;22788;51.434;6.786;2023-05-01T07:33:59;2.38;;;2.17;;
36855;SDS011;22788;51.434;6.786;2023-05-01T07:36:25;2.95;;;2.65;;
36855;SDS011;22788;51.434;6.786;2023-05-01T07:38:50;3.25;;;2.50;;
36855;SDS011;22788;51.434;6.786;2023-05-01T07:41:16;3.40;;;2.05;;
36855;SDS011;22788;51.434;6.786;2023-05-01T07:43:42;4.70;;;2.67;;
36855;SDS011;22788;51.434;6.786;2023-05-01T07:46:07;3.22;;;2.42;;
36855;SDS011;22788;51.434;6.786;2023-05-01T07:48:33;4.82;;;2.47;;
36855;SDS011;22788;51.434;6.786;2023-05-01T07:51:01;3.78;;;2.50;;
36855;SDS011;22788;51.434;6.786;2023-05-01T07:53:27;2.25;;;2.05;;
36855;SDS011;22788;51.434;6.786;2023-05-01T07:55:53;5.80;;;3.10;;
36855;SDS011;22788;51.434;6.786;2023-05-01T07:58:18;4.07;;;2.20;;
36855;SDS011;22788;51.434;6.786;2023-05-01T08:00:44;3.28;;;2.13;;
36855;SDS011;22788;51.434;6.786;2023-05-01T08:03:10;3.13;;;2.40;;
36855;SDS011;22788;51.434;6.786;2023-05-01T08:05:38;6.63;;;3.42;;
36855;SDS011;22788;51.434;6.786;2023-05-01T08:08:06;4.03;;;2.33;;
36855;SDS011;22788;51.434;6.786;2023-05-01T08:10:31;4.30;;;2.42;;
36855;SDS011;22788;51.434;6.786;2023-05-01T08:12:57;2.83;;;2.13;;
36855;SDS011;22788;51.434;6.786;2023-05-01T08:15:22;4.40;;;2.00;;
36855;SDS011;22788;51.434;6.786;2023-05-01T08:17:48;3.38;;;2.67;;
36855;SDS011;22788;51.434;6.786;2023-05-01T08:20:14;3.33;;;2.25;;
36855;SDS011;22788;51.434;6.786;2023-05-01T08:22:42;5.32;;;2.20;;
36855;SDS011;22788;51.434;6.786;2023-05-01T08:25:09;3.17;;;2.13;;
36855;SDS011;22788;51.434;6.786;2023-05-01T08:27:38;3.45;;;2.20;;
36855;SDS011;22788;51.434;6.786;2023-05-01T08:30:04;2.85;;;2.35;;
36855;SDS011;22788;51.434;6.786;2023-05-01T08:32:30;4.05;;;2.05;;
36855;SDS011;22788;51.434;6.786;2023-05-01T08:34:56;3.00;;;2.47;;
36855;SDS011;22788;51.434;6.786;2023-05-01T08:37:22;3.00;;;2.22;;
36855;SDS011;22788;51.434;6.786;2023-05-01T08:39:47;2.25;;;1.90;;
36855;SDS011;22788;51.434;6.786;2023-05-01T08:42:15;4.07;;;2.13;;
36855;SDS011;22788;51.434;6.786;2023-05-01T08:44:41;5.18;;;2.63;;
36855;SDS011;22788;51.434;6.786;2023-05-01T08:47:09;5.03;;;2.20;;
36855;SDS011;22788;51.434;6.786;2023-05-01T08:49:40;6.25;;;3.95;;
36855;SDS011;22788;51.434;6.786;2023-05-01T08:52:17;2.63;;;2.15;;
36855;SDS011;22788;51.434;6.786;2023-05-01T08:54:48;3.25;;;2.10;;
36855;SDS011;22788;51.434;6.786;2023-05-01T08:57:20;2.08;;;1.80;;
36855;SDS011;22788;51.434;6.786;2023-05-01T08:59:52;3.85;;;2.25;;
36855;SDS011;22788;51.434;6.786;2023-05-01T09:02:21;3.15;;;2.42;;
36855;SDS011;22788;51.434;6.786;2023-05-01T09:04:48;5.30;;;2.17;;
36855;SDS011;22788;51.434;6.786;2023-05-01T09:07:16;2.97;;;2.08;;
36855;SDS011;22788;51.434;6.786;2023-05-01T09:09:41;3.35;;;1.98;;
36855;SDS011;22788;51.434;6.786;2023-05-01T09:12:12;3.55;;;2.33;;
36855;SDS011;22788;51.434;6.786;2023-05-01T09:14:47;4.32;;;1.95;;
36855;SDS011;22788;51.434;6.786;2023-05-01T09:17:15;3.20;;;2.63;;
36855;SDS011;22788;51.434;6.786;2023-05-01T09:19:41;3.72;;;2.88;;
36855;SDS011;22788;51.434;6.786;2023-05-01T09:22:10;3.72;;;2.53;;
36855;SDS011;22788;51.434;6.786;2023-05-01T09:24:36;3.30;;;2.53;;
36855;SDS011;22788;51.434;6.786;2023-05-01T09:27:01;4.55;;;2.50;;
36855;SDS011;22788;51.434;6.786;2023-05-01T09:29:37;2.30;;;2.10;;
36855;SDS011;22788;51.434;6.786;2023-05-01T09:32:18;3.65;;;2.38;;
36855;SDS011;22788;51.434;6.786;2023-05-01T09:34:47;7.00;;;2.47;;
36855;SDS011;22788;51.434;6.786;2023-05-01T09:37:25;3.35;;;2.05;;
36855;SDS011;22788;51.434;6.786;2023-05-01T09:39:59;3.97;;;2.20;;
36855;SDS011;22788;51.434;6.786;2023-05-01T09:42:32;3.03;;;2.03;;
36855;SDS011;22788;51.434;6.786;2023-05-01T09:45:02;4.40;;;2.30;;
36855;SDS011;22788;51.434;6.786;2023-05-01T09:47:30;3.00;;;2.00;;
36855;SDS011;22788;51.434;6.786;2023-05-01T09:49:58;4.47;;;2.22;;
36855;SDS011;22788;51.434;6.786;2023-05-01T09:52:24;5.53;;;2.85;;
36855;SDS011;22788;51.434;6.786;2023-05-01T09:54:52;3.20;;;2.55;;
36855;SDS011;22788;51.434;6.786;2023-05-01T09:57:36;2.92;;;2.40;;
36855;SDS011;22788;51.434;6.786;2023-05-01T10:00:01;3.78;;;2.72;;
36855;SDS011;22788;51.434;6.786;2023-05-01T10:02:32;4.85;;;2.53;;
36855;SDS011;22788;51.434;6.786;2023-05-01T10:05:03;4.22;;;2.15;;
36855;SDS011;22788;51.434;6.786;2023-05-01T10:07:35;3.97;;;2.17;;
36855;SDS011;22788;51.434;6.786;2023-05-01T10:10:14;3.72;;;2.65;;
36855;SDS011;22788;51.434;6.786;2023-05-01T10:12:40;3.28;;;2.30;;
36855;SDS011;22788;51.434;6.786;2023-05-01T10:15:06;3.75;;;2.67;;
36855;SDS011;22788;51.434;6.786;2023-05-01T10:17:35;3.15;;;2.50;;
36855;SDS011;22788;51.434;6.786;2023-05-01T10:20:02;5.00;;;2.38;;
36855;SDS011;22788;51.434;6.786;2023-05-01T10:22:29;2.70;;;2.35;;
36855;SDS011;22788;51.434;6.786;2023-05-01T10:24:54;5.13;;;2.70;;
36855;SDS011;22788;51.434;6.786;2023-05-01T10:27:20;8.10;;;3.13;;
36855;SDS011;22788;51.434;6.786;2023-05-01T10:29:48;3.50;;;2.67;;
36855;SDS011;22788;51.434;6.786;2023-05-01T10:32:17;3.33;;;2.40;;
36855;SDS011;22788;51.434;6.786;2023-05-01T10:34:44;3.75;;;2.15;;
36855;SDS011;22788;51.434;6.786;2023-05-01T10:37:16;4.65;;;2.85;;
36855;SDS011;22788;51.434;6.786;2023-05-01T10:39:45;4.80;;;2.80;;
36855;SDS011;22788;51.434;6.786;2023-05-01T10:42:11;4.78;;;2.70;;
36855;SDS011;22788;51.434;6.786;2023-05-01T10:44:37;6.45;;;3.03;;
36855;SDS011;22788;51.434;6.786;2023-05-01T10:50:07;4.50;;;2.75;;
36855;SDS011;22788;51.434;6.786;2023-05-01T10:55:37;4.82;;;2.80;;
36855;SDS011;22788;51.434;6.786;2023-05-01T10:58:03;6.70;;;3.10;;
36855;SDS011;22788;51.434;6.786;2023-05-01T11:00:29;4.70;;;3.10;;
36855;SDS011;22788;51.434;6.786;2023-05-01T11:06:05;4.10;;;2.55;;
36855;SDS011;22788;51.434;6.786;2023-05-01T11:08:32;5.05;;;3.22;;
36855;SDS011;22788;51.434;6.786;2023-05-01T11:10:59;3.80;;;2.95;;
36855;SDS011;22788;51.434;6.786;2023-05-01T11:14:05;4.78;;;2.60;;
36855;SDS011;22788;51.434;6.786;2023-05-01T11:16:41;4.38;;;3.22;;
36855;SDS011;22788;51.434;6.786;2023-05-01T11:19:08;4.25;;;2.70;;
36855;SDS011;22788;51.434;6.786;2023-05-01T11:21:36;4.07;;;2.72;;
36855;SDS011;22788;51.434;6.786;2023-05-01T11:24:02;3.92;;;2.85;;
36855;SDS011;22788;51.434;6.786;2023-05-01T11:26:29;2.85;;;2.50;;
36855;SDS011;22788;51.434;6.786;2023-05-01T11:28:56;4.63;;;3.08;;
36855;SDS011;22788;51.434;6.786;2023-05-01T11:31:24;6.55;;;2.80;;
36855;SDS011;22788;51.434;6.786;2023-05-01T11:33:50;3.30;;;2.67;;
36855;SDS011;22788;51.434;6.786;2023-05-01T11:36:16;4.75;;;2.40;;
36855;SDS011;22788;51.434;6.786;2023-05-01T11:38:51;3.30;;;2.22;;
36855;SDS011;22788;51.434;6.786;2023-05-01T11:41:18;3.03;;;2.58;;
36855;SDS011;22788;51.434;6.786;2023-05-01T11:43:48;3.70;;;2.40;;
36855;SDS011;22788;51.434;6.786;2023-05-01T11:46:14;5.07;;;2.60;;
36855;SDS011;22788;51.434;6.786;2023-05-01T11:48:49;2.63;;;2.03;;
36855;SDS011;22788;51.434;6.786;2023-05-01T11:51:15;2.88;;;2.25;;
36855;SDS011;22788;51.434;6.786;2023-05-01T11:53:40;3.55;;;2.40;;
36855;SDS011;22788;51.434;6.786;2023-05-01T11:56:24;2.85;;;2.30;;
36855;SDS011;22788;51.434;6.786;2023-05-01T11:58:50;3.88;;;2.30;;
36855;SDS011;22788;51.434;6.786;2023-05-01T12:01:20;3.42;;;2.22;;
36855;SDS011;22788;51.434;6.786;2023-05-01T12:03:47;2.83;;;2.20;;
36855;SDS011;22788;51.434;6.786;2023-05-01T12:06:14;5.70;;;2.67;;
36855;SDS011;22788;51.434;6.786;2023-05-01T12:08:41;2.63;;;2.17;;
36855;SDS011;22788;51.434;6.786;2023-05-01T12:11:08;2.28;;;2.08;;
36855;SDS011;22788;51.434;6.786;2023-05-01T12:13:33;2.60;;;2.00;;
36855;SDS011;22788;51.434;6.786;2023-05-01T12:16:01;3.60;;;2.50;;
36855;SDS011;22788;51.434;6.786;2023-05-01T12:18:30;2.40;;;2.00;;
36855;SDS011;22788;51.434;6.786;2023-05-01T12:20:57;3.42;;;2.38;;
36855;SDS011;22788;51.434;6.786;2023-05-01T12:23:29;3.72;;;2.33;;
36855;SDS011;22788;51.434;6.786;2023-05-01T12:25:57;4.30;;;2.88;;
36855;SDS011;22788;51.434;6.786;2023-05-01T12:28:51;3.40;;;2.40;;
36855;SDS011;22788;51.434;6.786;2023-05-01T12:31:18;2.20;;;2.00;;
36855;SDS011;22788;51.434;6.786;2023-05-01T12:33:51;3.55;;;1.98;;
36855;SDS011;22788;51.434;6.786;2023-05-01T12:36:18;2.33;;;2.10;;
36855;SDS011;22788;51.434;6.786;2023-05-01T12:38:53;5.38;;;2.40;;
36855;SDS011;22788;51.434;6.786;2023-05-01T12:41:19;2.65;;;1.98;;
36855;SDS011;22788;51.434;6.786;2023-05-01T12:43:45;3.10;;;2.05;;
36855;SDS011;22788;51.434;6.786;2023-05-01T12:46:12;2.80;;;1.83;;
36855;SDS011;22788;51.434;6.786;2023-05-01T12:48:38;3.20;;;2.05;;
36855;SDS011;22788;51.434;6.786;2023-05-01T12:51:04;3.28;;;2.05;;
36855;SDS011;22788;51.434;6.786;2023-05-01T12:53:31;2.83;;;2.00;;
36855;SDS011;22788;51.434;6.786;2023-05-01T12:55:57;2.38;;;2.17;;
36855;SDS011;22788;51.434;6.786;2023-05-01T12:58:23;2.20;;;2.00;;
36855;SDS011;22788;51.434;6.786;2023-05-01T13:00:58;4.10;;;1.90;;
36855;SDS011;22788;51.434;6.786;2023-05-01T13:03:24;2.13;;;1.92;;
36855;SDS011;22788;51.434;6.786;2023-05-01T13:05:52;3.72;;;2.17;;
36855;SDS011;22788;51.434;6.786;2023-05-01T13:08:28;3.30;;;1.80;;
36855;SDS011;22788;51.434;6.786;2023-05-01T13:10:57;1.80;;;1.60;;
36855;SDS011;22788;51.434;6.786;2023-05-01T13:13:27;2.03;;;1.70;;
36855;SDS011;22788;51.434;6.786;2023-05-01T13:16:04;1.77;;;1.60;;
36855;SDS011;22788;51.434;6.786;2023-05-01T13:18:31;1.75;;;1.63;;
36855;SDS011;22788;51.434;6.786;2023-05-01T13:21:04;1.95;;;1.75;;
36855;SDS011;22788;51.434;6.786;2023-05-01T13:23:50;3.25;;;1.58;;
36855;SDS011;22788;51.434;6.786;2023-05-01T13:26:25;2.33;;;1.65;;
36855;SDS011;22788;51.434;6.786;2023-05-01T13:28:51;1.60;;;1.50;;
36855;SDS011;22788;51.434;6.786;2023-05-01T13:31:17;5.40;;;1.85;;
36855;SDS011;22788;51.434;6.786;2023-05-01T13:33:43;3.03;;;1.60;;
36855;SDS011;22788;51.434;6.786;2023-05-01T13:36:13;2.58;;;1.58;;
36855;SDS011;22788;51.434;6.786;2023-05-01T13:38:40;2.40;;;1.40;;
36855;SDS011;22788;51.434;6.786;2023-05-01T13:41:14;1.40;;;1.30;;
36855;SDS011;22788;51.434;6.786;2023-05-01T13:43:43;1.65;;;1.52;;
36855;SDS011;22788;51.434;6.786;2023-05-01T13:46:09;1.70;;;1.60;;
36855;SDS011;22788;51.434;6.786;2023-05-01T13:48:35;2.55;;;1.80;;
36855;SDS011;22788;51.434;6.786;2023-05-01T13:51:05;2.90;;;1.60;;
36855;SDS011;22788;51.434;6.786;2023-05-01T13:53:34;4.25;;;1.35;;
36855;SDS011;22788;51.434;6.786;2023-05-01T13:55:59;2.63;;;1.55;;
36855;SDS011;22788;51.434;6.786;2023-05-01T13:58:29;4.38;;;1.98;;
36855;SDS011;22788;51.434;6.786;2023-05-01T14:00:57;2.90;;;2.00;;
36855;SDS011;22788;51.434;6.786;2023-05-01T14:03:22;3.35;;;2.03;;
36855;SDS011;22788;51.434;6.786;2023-05-01T14:06:00;3.70;;;1.95;;
36855;SDS011;22788;51.434;6.786;2023-05-01T14:08:29;2.72;;;1.80;;
36855;SDS011;22788;51.434;6.786;2023-05-01T14:10:56;2.50;;;2.03;;
36855;SDS011;22788;51.434;6.786;2023-05-01T14:13:22;2.90;;;1.90;;
36855;SDS011;22788;51.434;6.786;2023-05-01T14:15:51;2.03;;;1.80;;
36855;SDS011;22788;51.434;6.786;2023-05-01T14:18:19;2.67;;;2.00;;
36855;SDS011;22788;51.434;6.786;2023-05-01T14:20:45;2.10;;;1.90;;
36855;SDS011;22788;51.434;6.786;2023-05-01T14:23:12;3.28;;;1.88;;
36855;SDS011;22788;51.434;6.786;2023-05-01T14:25:39;3.15;;;1.67;;
36855;SDS011;22788;51.434;6.786;2023-05-01T14:28:05;2.08;;;1.88;;
36855;SDS011;22788;51.434;6.786;2023-05-01T14:30:31;2.05;;;1.85;;
36855;SDS011;22788;51.434;6.786;2023-05-01T14:32:59;2.15;;;1.65;;
36855;SDS011;22788;51.434;6.786;2023-05-01T14:35:27;4.18;;;2.60;;
36855;SDS011;22788;51.434;6.786;2023-05-01T14:37:52;4.78;;;2.90;;
36855;SDS011;22788;51.434;6.786;2023-05-01T14:40:20;3.53;;;2.90;;
36855;SDS011;22788;51.434;6.786;2023-05-01T14:42:50;4.35;;;2.85;;
36855;SDS011;22788;51.434;6.786;2023-05-01T14:45:15;10.90;;;3.30;;
36855;SDS011;22788;51.434;6.786;2023-05-01T14:47:43;5.63;;;3.88;;
36855;SDS011;22788;51.434;6.786;2023-05-01T14:50:10;7.10;;;3.30;;
36855;SDS011;22788;51.434;6.786;2023-05-01T14:52:37;4.95;;;3.80;;
36855;SDS011;22788;51.434;6.786;2023-05-01T14:55:03;7.30;;;2.80;;
36855;SDS011;22788;51.434;6.786;2023-05-01T14:57:29;7.20;;;3.70;;
36855;SDS011;22788;51.434;6.786;2023-05-01T14:59:55;9.02;;;3.50;;
36855;SDS011;22788;51.434;6.786;2023-05-01T15:02:20;6.85;;;3.80;;